Track Горланов Сергей

Time Latitude Longitude Accuracy (66% radius in meters) Altitude (meters) Speed (km/hour) Bearing (degrees) Battery (%) GPS flag
10:11:48 60.370971 29.556353 6 76.819519452476 0.21218428015709 260.84552001953 85 1 delete
10:11:35 60.370988 29.556293 12 76.832358044413 0.15591560304165 175.25648498535 85 1 delete
10:11:26 60.371005 29.556331 8 76.511915797072 0.23120494186878 175.25648498535 85 1 delete
10:11:14 60.371014 29.556320 8 76.761627710842 0.30416792631149 316.21697998047 85 1 delete
10:11:05 60.371002 29.556332 8 77.236689104245 0.38199278712273 245.34060668945 85 1 delete
10:11:02 60.370982 29.556352 8 77.907898227858 0.033365953713655 31.359367370605 85 1 delete
10:10:56 60.370960 29.556363 8 78.890520193787 0.28420314192772 298.78952026367 85 1 delete
10:10:50 60.370969 29.556409 8 78.904116550751 0.22716923058033 36.037414550781 85 1 delete
10:10:41 60.370971 29.556454 8 78.816955945069 0 349.07897949219 85 1 delete
10:10:29 60.370971 29.556454 6 79.204640574651 0 349.07897949219 85 1 delete
10:10:17 60.370971 29.556454 4 79.816237851477 0 349.07897949219 85 1 delete
10:10:05 60.370971 29.556454 8 80.062092837357 0 349.07897949219 85 1 delete
10:09:53 60.370971 29.556454 6 80.390650034392 0 349.07897949219 85 1 delete
10:09:41 60.370971 29.556454 6 80.53464697905 0 349.07897949219 85 1 delete
10:09:29 60.370971 29.556454 6 80.657428103548 0 349.07897949219 85 1 delete
10:09:17 60.370971 29.556454 6 80.745993764928 0 349.07897949219 85 1 delete
10:09:05 60.370971 29.556454 8 80.999083903788 0 349.07897949219 85 1 delete
10:08:53 60.370971 29.556454 12 81.280660892528 0 349.07897949219 85 1 delete
10:08:44 60.370971 29.556454 6 81.326881322141 0 349.07897949219 85 1 delete
10:08:32 60.370971 29.556454 6 81.530994071337 0 349.07897949219 85 1 delete
10:08:20 60.370971 29.556454 6 81.709264198932 0 349.07897949219 85 1 delete
10:08:08 60.370971 29.556454 4 81.360733147826 0 349.07897949219 85 1 delete
10:07:56 60.370971 29.556454 6 81.084962355954 0 349.07897949219 85 1 delete
10:07:44 60.370971 29.556454 8 81.074035363103 0 349.07897949219 85 1 delete
10:07:35 60.370971 29.556454 6 81.15257158231 0 349.07897949219 85 1 delete
10:07:20 60.370971 29.556454 6 81.200090282123 0 349.07897949219 85 1 delete
10:07:11 60.370971 29.556454 6 81.101800535415 0 349.07897949219 85 1 delete
10:07:02 60.370971 29.556454 6 81.241186876165 0 349.07897949219 85 1 delete
10:06:59 60.370915 29.556491 6 81.344868954971 0 291.63598632812 85 1 delete
10:06:56 60.370915 29.556491 8 81.412509841903 0 291.63598632812 85 1 delete
10:06:47 60.370825 29.556579 12 81.931963685912 0 291.63598632812 85 1 delete
10:06:38 60.370823 29.556588 8 81.769222923222 1.8227573633194 295.14489746094 85 1 delete
10:06:35 60.370790 29.556700 8 81.654241346724 2.0206074714661 303.66949462891 85 1 delete
10:06:23 60.370755 29.556833 8 81.329197366146 0 125.62512207031 85 1 delete
10:06:11 60.370765 29.556803 12 78.700602274065 0 350.28088378906 85 1 delete
10:05:59 60.370765 29.556803 8 78.46972103444 0 350.28088378906 85 1 delete
10:05:53 60.370741 29.556804 12 78.655736015339 2.4936368465424 323.07821655273 85 1 delete
10:05:50 60.370701 29.556853 8 79.037199158044 0 313.64947509766 85 1 delete
10:05:47 60.370642 29.557015 6 79.413689351685 6.4371876716614 311.85980224609 85 1 delete
10:05:44 60.370593 29.557321 8 80.482912951245 7.4529523849487 236.00250244141 85 1 delete
10:05:41 60.370789 29.557425 6 82.808302397131 8.0674619674683 143.87283325195 85 1 delete
10:05:38 60.370984 29.557149 8 85.335018251723 7.5562314987183 143.07933044434 85 1 delete
10:05:35 60.371146 29.557077 12 85.94189729761 3.8609447479248 195.0110168457 85 1 delete
10:05:32 60.371173 29.557311 8 87.212014201488 7.0387949943542 307.57330322266 85 1 delete
10:05:29 60.371062 29.557668 8 90.513408741934 6.9914293289185 303.82006835938 85 1 delete
10:05:26 60.370906 29.558043 8 91.310899930977 7.6061120033264 319.72061157227 85 1 delete
10:05:23 60.370711 29.558370 8 92.495257529625 5.3971724510193 336.35830688477 85 1 delete
10:05:20 60.370461 29.558515 12 94.002095923447 4.6265420913696 353.74304199219 89 1 delete
10:05:17 60.370261 29.558659 8 93.496814933902 4.0780520439148 324.95407104492 89 1 delete
10:05:14 60.370118 29.558647 8 93.642448023462 3.8566002845764 27.788568496704 89 1 delete